Ana Sayfa
METAR-TAF:

METAR-TAF

Havaalanları :

Kanoya, Japonya

Enlem: 31-22N, Boylam: 130-50E, yükseklik: 65 m

Güncel hava durumu gözlemi

Rapor saat 06:37 UTC de 22 dakika önce yapıldı.
Rüzgar batı/kuzeybatıdan 20 kt ve 30 kt'a kadar ani rüzgarlar
Sıcaklık 14°C
Nem 33%
Basınç 1014 hPa
Görüş mesafesi 10 km veya daha fazla
2000 ft yükseklikte az bulutlu
İstasyon Civarında/ Çevresinde, Volkanik kül

METAR: RJFY 010637Z 29020G30KT 9999 VCVA FEW020 14/M02 Q1014 RMK 1CU020 A2996 VOLCANIC ASH 15KM SE MOV SE

Saat: 15:59 (06:59 UTC)


TAF: eksik

4.000'den fazla havaalanı için hava durumu gözlemleri ve tahminleri (METAR ve TAF raporları).

Kullanılabilir istasyonlar harita üzerinde sarı ve kırmızı noktalarla gösterilir.

İstasyonun adını görmek için fareyi noktanın üzerinde gezdirin.

Sonrasında hava gözlem ve tahminlerini görmek için tıklayın.

Haritayı değiştirmek için: yaklaştırmak için siyah artı işaretli yeşil düğmeye ve uzaklaştırmak için de eksi işaretli düğmeye hızla tıklayın; bitişik haritalar için yeşil okları kullanın.


METAR-TAF: